Time;durP1;ratioP1;P1;durP2;ratioP2;P2;SDS_P1;SDS_P2;PMS_P1;PMS_P2;Temp;Humidity;BMP_temperature;BMP_pressure;BME280_temperature;BME280_humidity;BME280_pressure;Samples;Min_cycle;Max_cycle;Signal;HPM_P1;HPM_P2
2021/03/04 02:19:12;;;;;;;34.13;13.60;;;7.20;99.90;;;;;;5941131;23;20024;31
2021/03/04 02:21:55;;;;;;;30.13;13.88;;;7.20;99.90;;;;;;4818065;29;20050;-95
2021/03/04 02:24:32;;;;;;;34.65;13.02;;;7.20;99.90;;;;;;4822037;29;20384;-96
2021/03/04 02:27:19;;;;;;;35.63;13.35;;;7.20;99.90;;;;;;4837447;29;20058;-95
2021/03/04 02:29:50;;;;;;;31.77;13.45;;;7.10;99.90;;;;;;4822614;29;20053;-95
2021/03/04 02:32:23;;;;;;;29.00;12.27;;;7.10;99.90;;;;;;4838470;29;20054;-95
2021/03/04 02:34:57;;;;;;;34.35;13.10;;;7.10;99.90;;;;;;4854497;29;20058;-96
2021/03/04 02:37:29;;;;;;;31.45;13.38;;;7.10;99.90;;;;;;4825643;29;20476;-95
2021/03/04 02:39:58;;;;;;;28.60;12.43;;;7.10;99.90;;;;;;4855271;29;20065;-94
2021/03/04 02:42:28;;;;;;;30.48;13.18;;;7.10;99.90;;;;;;4840040;29;20079;-96
2021/03/04 02:44:57;;;;;;;33.47;13.93;;;7.10;99.90;;;;;;4822053;29;20062;-95
2021/03/04 02:47:24;;;;;;;31.65;13.68;;;7.00;99.90;;;;;;4818931;29;20503;-96
2021/03/04 02:49:53;;;;;;;37.30;16.65;;;7.00;99.90;;;;;;4854850;29;20385;-96
2021/03/04 02:52:22;;;;;;;31.95;13.18;;;7.10;99.90;;;;;;4829003;29;20342;-96
2021/03/04 02:54:52;;;;;;;29.52;13.77;;;7.10;99.90;;;;;;4856656;29;20457;-93
2021/03/04 02:57:21;;;;;;;31.08;13.60;;;7.10;99.90;;;;;;4827918;29;20064;-96
2021/03/04 02:59:53;;;;;;;33.15;13.57;;;7.10;99.90;;;;;;4836974;29;20058;-96
2021/03/04 03:02:20;;;;;;;32.42;13.70;;;7.10;99.90;;;;;;4837113;29;20061;-95
2021/03/04 03:04:48;;;;;;;30.00;13.40;;;7.10;99.90;;;;;;4862238;29;20057;-95
2021/03/04 03:07:17;;;;;;;35.25;14.43;;;7.10;99.90;;;;;;4828004;29;20058;-96
2021/03/04 03:09:46;;;;;;;30.42;13.50;;;7.10;99.90;;;;;;4827184;29;20472;-95
2021/03/04 03:12:15;;;;;;;49.95;15.70;;;7.10;99.90;;;;;;4833043;29;20045;-96
2021/03/04 03:18:48;;;;;;;31.83;14.25;;;7.00;99.90;;;;;;4853080;29;20042;-96
2021/03/04 03:21:15;;;;;;;33.08;14.15;;;7.00;99.90;;;;;;4851096;29;20060;-96
2021/03/04 03:23:43;;;;;;;36.10;14.82;;;7.00;99.90;;;;;;4836869;29;20056;-95
2021/03/04 03:26:11;;;;;;;37.05;14.98;;;7.10;99.90;;;;;;4829476;29;20137;-96
2021/03/04 03:28:39;;;;;;;33.92;14.70;;;7.00;99.90;;;;;;4822232;29;20385;-95
2021/03/04 03:31:07;;;;;;;41.38;15.52;;;7.00;99.90;;;;;;4822899;29;20054;-96
2021/03/04 03:33:35;;;;;;;29.92;14.18;;;6.90;99.90;;;;;;4828943;29;20053;-95
2021/03/04 03:36:07;;;;;;;35.72;14.63;;;6.90;99.90;;;;;;4831131;29;20062;-95
2021/03/04 03:38:35;;;;;;;39.08;15.55;;;6.90;99.90;;;;;;4840164;29;20072;-96
2021/03/04 03:41:06;;;;;;;35.80;15.02;;;7.00;99.90;;;;;;4818582;29;20054;-96
2021/03/04 03:43:34;;;;;;;32.80;15.32;;;7.00;99.90;;;;;;4816605;29;20074;-96
2021/03/04 03:46:02;;;;;;;41.90;16.13;;;6.90;99.90;;;;;;4819727;29;20050;-96
2021/03/04 03:48:30;;;;;;;35.88;15.85;;;7.00;99.90;;;;;;4822194;29;20073;-96
2021/03/04 03:50:59;;;;;;;36.92;14.40;;;6.90;99.90;;;;;;4820953;29;20057;-96
2021/03/04 03:53:27;;;;;;;28.70;14.55;;;6.90;99.90;;;;;;4834917;29;20054;-96
2021/03/04 03:55:57;;;;;;;36.13;15.10;;;7.00;99.90;;;;;;4820473;29;20054;-96
2021/03/04 03:58:24;;;;;;;;;;;7.10;99.90;;;;;;4849593;29;20069;-96
2021/03/04 04:00:55;;;;;;;34.25;13.75;;;7.00;99.90;;;;;;4832791;29;19924;-96
2021/03/04 04:03:23;;;;;;;41.50;16.48;;;7.00;99.90;;;;;;4819567;29;20061;-96
2021/03/04 04:05:50;;;;;;;35.90;16.23;;;7.00;99.90;;;;;;4814744;29;20046;-96
2021/03/04 04:08:18;;;;;;;35.38;15.18;;;7.10;99.90;;;;;;4815609;29;20065;-96
2021/03/04 04:10:47;;;;;;;44.10;17.08;;;7.00;99.90;;;;;;4831425;29;20065;-95
2021/03/04 04:13:15;;;;;;;37.53;17.10;;;7.00;99.90;;;;;;4814915;29;20069;-96
2021/03/04 04:15:43;;;;;;;35.33;16.20;;;7.00;99.90;;;;;;4816114;29;20061;-94
2021/03/04 04:18:11;;;;;;;39.38;15.82;;;6.90;99.90;;;;;;4845590;29;20073;-95
2021/03/04 04:20:40;;;;;;;34.70;15.73;;;6.90;99.90;;;;;;4811789;29;20062;-96
2021/03/04 04:23:08;;;;;;;34.53;15.10;;;6.90;99.90;;;;;;4797020;29;20054;-96
2021/03/04 04:25:43;;;;;;;36.47;16.55;;;7.00;99.90;;;;;;4812132;29;20149;-96
2021/03/04 04:28:11;;;;;;;36.28;15.70;;;7.10;99.90;;;;;;4827182;29;20069;-96
2021/03/04 04:30:39;;;;;;;38.97;15.50;;;7.10;99.90;;;;;;4796566;29;20469;-96
2021/03/04 04:33:07;;;;;;;36.80;15.13;;;7.10;99.90;;;;;;4799277;29;20054;-96
2021/03/04 04:35:34;;;;;;;35.83;14.90;;;7.10;99.90;;;;;;4814146;29;20062;-96
2021/03/04 04:38:01;;;;;;;35.05;15.60;;;7.00;99.90;;;;;;4799543;29;20058;-95
2021/03/04 04:40:29;;;;;;;33.65;15.95;;;7.00;99.90;;;;;;4797579;29;20058;-96
2021/03/04 04:42:56;;;;;;;36.28;14.80;;;6.70;99.90;;;;;;4798917;29;20070;-96
2021/03/04 04:45:24;;;;;;;34.47;15.60;;;6.90;99.90;;;;;;4803283;29;20061;-96
2021/03/04 04:47:52;;;;;;;40.22;15.95;;;7.10;99.90;;;;;;4802486;29;20081;-95
2021/03/04 04:50:20;;;;;;;36.83;15.82;;;7.00;99.90;;;;;;4798975;29;20069;-96
2021/03/04 04:52:47;;;;;;;35.63;15.48;;;7.00;99.90;;;;;;4812554;29;20058;-94
2021/03/04 04:55:15;;;;;;;42.10;15.82;;;7.00;99.90;;;;;;4812189;29;20078;-96
2021/03/04 04:57:45;;;;;;;38.90;16.98;;;6.90;99.90;;;;;;4827312;29;20389;-96
2021/03/04 05:00:13;;;;;;;33.97;15.82;;;6.90;99.90;;;;;;4801165;29;20062;-96
2021/03/04 05:02:45;;;;;;;37.83;15.43;;;7.00;99.90;;;;;;4837210;29;20050;-95
2021/03/04 05:05:13;;;;;;;39.38;15.32;;;7.00;99.90;;;;;;4825100;29;20058;-96
2021/03/04 05:07:40;;;;;;;41.40;16.80;;;7.00;99.90;;;;;;4819982;29;20065;-96
2021/03/04 05:10:20;;;;;;;38.50;16.05;;;7.00;99.90;;;;;;4801440;29;20058;-96
2021/03/04 05:12:47;;;;;;;43.13;16.77;;;7.00;99.90;;;;;;4802430;29;20069;-96
2021/03/04 05:15:15;;;;;;;36.53;15.45;;;7.00;99.90;;;;;;4820786;29;20054;-96
2021/03/04 05:17:45;;;;;;;38.25;16.23;;;7.00;99.90;;;;;;4829648;29;20054;-94
2021/03/04 05:20:15;;;;;;;42.65;16.52;;;6.90;99.90;;;;;;4815795;29;20054;-95
2021/03/04 05:22:43;;;;;;;36.50;15.82;;;6.90;99.90;;;;;;4815572;29;20058;-96
2021/03/04 05:25:11;;;;;;;39.97;16.58;;;6.90;99.90;;;;;;4827464;29;20401;-96
2021/03/04 05:27:39;;;;;;;41.88;17.08;;;7.00;99.90;;;;;;4808353;29;20453;-96
2021/03/04 05:30:07;;;;;;;39.78;17.02;;;6.90;99.90;;;;;;4806503;29;20492;-96
2021/03/04 05:32:35;;;;;;;36.00;15.40;;;6.90;99.90;;;;;;4805955;29;20504;-96
2021/03/04 05:35:04;;;;;;;37.42;17.75;;;7.00;99.90;;;;;;4824100;29;20070;-96
2021/03/04 05:37:33;;;;;;;34.67;16.25;;;7.00;99.90;;;;;;4808492;29;20065;-96
2021/03/04 05:40:00;;;;;;;26.52;11.15;;;6.90;99.90;;;;;;4822725;29;20054;-96
2021/03/04 05:42:31;;;;;;;39.50;17.17;;;6.90;99.90;;;;;;4807987;29;20055;-95
2021/03/04 05:44:59;;;;;;;36.05;16.73;;;6.80;99.90;;;;;;4838478;29;20070;-95
2021/03/04 05:47:28;;;;;;;37.03;15.97;;;6.90;99.90;;;;;;4806721;29;20073;-95
2021/03/04 05:50:01;;;;;;;44.25;17.83;;;6.90;99.90;;;;;;4806523;29;20077;-96
2021/03/04 05:52:36;;;;;;;42.80;16.38;;;6.90;99.90;;;;;;4826358;29;20058;-95
2021/03/04 05:55:05;;;;;;;38.00;17.15;;;6.90;99.90;;;;;;4846949;29;20054;-96
2021/03/04 05:57:34;;;;;;;39.17;16.80;;;6.90;99.90;;;;;;4820509;29;20051;-95
2021/03/04 06:00:01;;;;;;;39.03;17.48;;;6.90;99.90;;;;;;4837873;29;20040;-96
2021/03/04 06:02:29;;;;;;;39.25;16.75;;;7.00;99.90;;;;;;4838229;29;20030;-95
2021/03/04 06:04:57;;;;;;;35.95;15.80;;;6.90;99.90;;;;;;4816609;29;20062;-96
2021/03/04 06:07:25;;;;;;;34.53;16.73;;;7.10;99.90;;;;;;4815983;29;20203;-96
2021/03/04 06:09:55;;;;;;;32.88;15.70;;;7.00;99.90;;;;;;4848041;29;20061;-96
2021/03/04 06:12:24;;;;;;;37.00;16.38;;;7.00;99.90;;;;;;4850934;29;20042;-96
2021/03/04 06:14:54;;;;;;;36.45;16.27;;;6.90;99.90;;;;;;4835559;29;20054;-94
2021/03/04 06:17:23;;;;;;;39.58;17.45;;;7.00;99.90;;;;;;4833833;29;20050;-96
2021/03/04 06:19:56;;;;;;;31.83;15.80;;;6.70;99.90;;;;;;4835474;29;20046;-96
2021/03/04 06:22:25;;;;;;;41.10;17.10;;;6.80;99.90;;;;;;4847185;29;20057;-96
2021/03/04 06:25:02;;;;;;;38.78;16.98;;;6.80;99.90;;;;;;4817717;29;20042;-95
2021/03/04 06:27:33;;;;;;;36.72;17.40;;;6.80;99.90;;;;;;4832794;29;20042;-95
2021/03/04 06:30:06;;;;;;;41.72;18.23;;;6.80;99.90;;;;;;4845113;29;20054;-96
2021/03/04 06:32:34;;;;;;;34.60;16.65;;;6.70;99.90;;;;;;4815971;29;20366;-96
2021/03/04 06:35:09;;;;;;;42.75;17.30;;;6.90;99.90;;;;;;4830694;29;20058;-96
2021/03/04 06:37:39;;;;;;;41.85;16.70;;;6.90;99.90;;;;;;4815455;29;20054;-96
2021/03/04 06:40:19;;;;;;;43.47;17.70;;;7.00;99.90;;;;;;4816901;29;20077;-96
2021/03/04 06:42:48;;;;;;;39.85;16.73;;;7.00;99.90;;;;;;4829285;29;20042;-96
2021/03/04 06:45:28;;;;;;;52.33;17.23;;;7.10;99.90;;;;;;4828361;29;20535;-95
2021/03/04 06:48:09;;;;;;;35.58;17.65;;;7.10;99.90;;;;;;4810313;29;20054;-96
2021/03/04 06:51:03;;;;;;;43.60;17.88;;;7.10;99.90;;;;;;4815611;29;20068;-96
2021/03/04 06:53:32;;;;;;;45.50;18.45;;;7.00;99.90;;;;;;4818789;29;20054;-96
2021/03/04 07:11:12;;;;;;;41.70;20.13;;;7.90;99.90;;;;;;5891899;23;20027;-92
2021/03/04 07:13:41;;;;;;;45.90;19.30;;;7.90;99.90;;;;;;4830746;29;20488;-96
2021/03/04 07:16:13;;;;;;;46.75;20.48;;;7.90;99.90;;;;;;4831339;29;20060;-96
2021/03/04 07:18:45;;;;;;;40.35;20.02;;;8.00;99.90;;;;;;4846189;29;20053;-96
2021/03/04 07:21:18;;;;;;;41.90;18.33;;;8.00;99.90;;;;;;4844880;29;20094;-96
2021/03/04 07:23:52;;;;;;;43.25;20.00;;;8.20;99.90;;;;;;4815789;29;20064;-96
2021/03/04 07:26:22;;;;;;;39.67;19.27;;;8.20;99.90;;;;;;4834583;29;20058;-96
2021/03/04 07:28:51;;;;;;;47.33;19.15;;;8.30;99.90;;;;;;4865613;29;20062;-96
2021/03/04 07:31:19;;;;;;;46.83;21.00;;;8.40;99.90;;;;;;4865036;29;20061;-96
2021/03/04 07:33:49;;;;;;;38.40;19.00;;;8.50;99.90;;;;;;4831822;29;20058;-96
2021/03/04 07:36:21;;;;;;;50.13;19.05;;;8.40;99.90;;;;;;4824498;29;20065;-95
2021/03/04 07:38:57;;;;;;;51.85;20.88;;;8.50;99.90;;;;;;4823671;29;20054;-96
2021/03/04 07:49:53;;;;;;;46.78;20.13;;;9.10;99.90;;;;;;5701778;23;20080;-96
2021/03/04 07:52:23;;;;;;;48.67;21.38;;;9.10;99.90;;;;;;4846510;29;20107;-95
2021/03/04 07:54:54;;;;;;;47.92;21.40;;;9.20;99.90;;;;;;4845970;29;20056;-95
2021/03/04 07:57:23;;;;;;;45.47;21.25;;;9.30;99.90;;;;;;4839466;29;20053;-96
2021/03/04 07:59:53;;;;;;;53.90;22.52;;;9.50;99.90;;;;;;4839174;29;20053;-96
2021/03/04 08:02:27;;;;;;;46.95;20.75;;;9.50;99.90;;;;;;4842853;29;20068;-96
2021/03/04 08:05:07;;;;;;;49.03;22.58;;;9.50;99.90;;;;;;4861940;29;20033;-93
2021/03/04 08:07:35;;;;;;;45.10;21.10;;;9.50;99.90;;;;;;4852423;29;20045;-94
2021/03/04 08:10:09;;;;;;;46.13;22.15;;;9.60;99.90;;;;;;4880339;29;20057;-94
2021/03/04 08:12:50;;;;;;;56.63;22.80;;;9.70;99.90;;;;;;4849604;29;20057;-93
2021/03/04 08:15:19;;;;;;;48.25;22.90;;;9.80;99.90;;;;;;4866129;29;20068;-95
2021/03/04 08:17:46;;;;;;;51.03;24.13;;;9.80;99.90;;;;;;4849122;29;20425;-94
2021/03/04 08:20:17;;;;;;;44.90;21.80;;;9.70;99.90;;;;;;4864113;29;20065;-95
2021/03/04 08:22:48;;;;;;;56.90;25.23;;;9.80;99.90;;;;;;4863413;29;20363;-96
2021/03/04 08:25:20;;;;;;;46.00;24.25;;;10.00;99.90;;;;;;4845216;29;20487;-93
2021/03/04 08:27:50;;;;;;;47.78;24.67;;;10.10;99.90;;;;;;4839623;29;20075;-93
2021/03/04 08:30:26;;;;;;;47.95;23.35;;;10.30;99.90;;;;;;4863359;29;20054;-93
2021/03/04 08:32:55;;;;;;;57.45;24.33;;;10.50;99.90;;;;;;4850086;29;20042;-91
2021/03/04 08:35:24;;;;;;;58.50;25.13;;;10.70;99.90;;;;;;4852538;29;20042;-93
2021/03/04 08:37:58;;;;;;;;;;;10.80;99.90;;;;;;4848014;29;20053;-91
2021/03/04 08:40:25;;;;;;;51.97;23.70;;;10.90;99.90;;;;;;4870498;29;19932;-93
2021/03/04 08:42:53;;;;;;;66.38;29.23;;;11.00;99.90;;;;;;4856008;29;20452;-92
2021/03/04 08:45:31;;;;;;;54.45;26.83;;;11.00;99.90;;;;;;4843800;29;20049;-92
2021/03/04 08:48:14;;;;;;;57.05;26.83;;;10.90;99.90;;;;;;4857878;29;20054;-92
2021/03/04 08:50:44;;;;;;;56.00;27.52;;;11.00;99.90;;;;;;4837618;29;20065;-91
2021/03/04 08:53:13;;;;;;;58.85;28.80;;;11.00;99.90;;;;;;4835075;29;20065;-92
2021/03/04 08:55:46;;;;;;;56.03;26.33;;;11.10;99.90;;;;;;4837960;29;20053;-92
2021/03/04 08:58:30;;;;;;;58.03;31.50;;;11.10;99.90;;;;;;4860599;29;20057;-90
2021/03/04 09:01:00;;;;;;;65.57;31.67;;;11.10;99.90;;;;;;4883229;29;20043;-91
2021/03/04 09:03:29;;;;;;;66.93;33.90;;;10.80;99.90;;;;;;4875476;29;20046;-93
2021/03/04 09:06:08;;;;;;;64.97;34.40;;;10.60;99.90;;;;;;4845178;29;20061;-95
2021/03/04 09:08:47;;;;;;;72.70;34.45;;;10.20;99.90;;;;;;5300697;23;21075;-93
2021/03/04 09:11:29;;;;;;;74.07;36.25;;;9.90;99.90;;;;;;5309844;23;20060;-95
2021/03/04 09:14:06;;;;;;;69.35;33.33;;;9.70;99.90;;;;;;4922887;23;20392;-92
2021/03/04 09:16:38;;;;;;;71.10;33.88;;;9.50;99.90;;;;;;4815068;29;20392;-92
2021/03/04 09:19:06;;;;;;;69.13;36.22;;;9.40;99.90;;;;;;4830998;29;20054;-92
2021/03/04 09:21:35;;;;;;;77.22;36.95;;;9.60;99.90;;;;;;4830076;29;20050;-92
2021/03/04 09:24:02;;;;;;;79.10;38.00;;;9.70;99.90;;;;;;4814066;29;20077;-92
2021/03/04 09:26:32;;;;;;;72.57;36.95;;;9.80;99.90;;;;;;4829183;29;20057;-92
2021/03/04 09:29:01;;;;;;;72.80;36.65;;;9.80;99.90;;;;;;4828847;29;20054;-91
2021/03/04 09:31:30;;;;;;;76.60;37.30;;;9.90;99.90;;;;;;4829663;29;20064;-92
2021/03/04 09:33:58;;;;;;;75.70;38.10;;;9.90;99.90;;;;;;4814845;29;20057;-91
2021/03/04 09:36:26;;;;;;;78.82;39.08;;;10.00;99.90;;;;;;4814702;29;20057;-91
2021/03/04 09:38:56;;;;;;;84.28;38.63;;;10.10;99.90;;;;;;4814958;29;20058;-92
2021/03/04 09:41:28;;;;;;;80.07;40.42;;;10.20;99.90;;;;;;4819406;29;20054;-92
2021/03/04 09:43:58;;;;;;;78.57;38.75;;;10.00;99.90;;;;;;4830972;29;20480;-92
2021/03/04 09:46:26;;;;;;;;;;;10.00;99.90;;;;;;4830943;29;20058;-92
2021/03/04 09:48:54;;;;;;;80.97;39.25;;;9.90;99.90;;;;;;4814513;29;19924;-92
2021/03/04 09:51:34;;;;;;;80.00;40.50;;;9.80;99.90;;;;;;4831006;29;20057;-91
2021/03/04 09:54:03;;;;;;;87.40;39.10;;;10.00;99.90;;;;;;4827051;29;20062;-92
2021/03/04 09:56:32;;;;;;;82.00;39.97;;;10.20;99.90;;;;;;4821292;29;20068;-92
2021/03/04 09:59:00;;;;;;;80.85;39.03;;;10.50;99.90;;;;;;4821989;29;20049;-92
2021/03/04 10:01:33;;;;;;;94.05;44.83;;;10.70;99.90;;;;;;4825969;29;20064;-89
2021/03/04 10:04:02;;;;;;;84.05;40.53;;;10.60;99.90;;;;;;4837233;29;20058;-91
2021/03/04 10:06:36;;;;;;;77.78;40.20;;;10.40;99.90;;;;;;4843246;29;20053;-91
2021/03/04 10:09:10;;;;;;;80.95;39.65;;;10.10;99.90;;;;;;4832501;29;20042;-95
2021/03/04 10:11:41;;;;;;;84.75;40.78;;;9.80;99.90;;;;;;4836029;29;20049;-94
2021/03/04 10:14:12;;;;;;;89.22;42.85;;;9.40;99.90;;;;;;4850693;29;20068;-94
2021/03/04 10:17:15;;;;;;;92.50;41.63;;;9.10;99.90;;;;;;4851118;29;20049;-94
2021/03/04 10:19:45;;;;;;;85.38;40.42;;;8.80;99.90;;;;;;4864573;23;20032;-83
2021/03/04 10:25:12;;;;;;;84.60;40.20;;;8.70;99.90;;;;;;5606351;23;20045;-95
2021/03/04 10:27:48;;;;;;;95.65;41.90;;;8.80;99.90;;;;;;4855670;29;20054;-94
2021/03/04 10:30:17;;;;;;;88.43;41.58;;;8.80;99.90;;;;;;4860861;29;20384;-94
2021/03/04 10:32:44;;;;;;;86.82;39.35;;;8.80;99.90;;;;;;4842188;29;20068;-94
2021/03/04 10:35:14;;;;;;;88.70;42.47;;;8.70;99.90;;;;;;4857332;29;20480;-94
2021/03/04 10:37:43;;;;;;;86.20;41.63;;;8.60;99.90;;;;;;4873696;29;20057;-93
2021/03/04 10:40:14;;;;;;;81.53;40.50;;;8.50;99.90;;;;;;4855510;29;20121;-93
2021/03/04 10:42:43;;;;;;;81.93;39.88;;;8.50;99.90;;;;;;4857452;29;20061;-95
2021/03/04 10:45:12;;;;;;;85.88;39.08;;;8.60;99.90;;;;;;4841908;29;20060;-94
2021/03/04 10:47:43;;;;;;;88.95;40.55;;;8.60;99.90;;;;;;4842626;29;20058;-94
2021/03/04 10:50:13;;;;;;;89.70;41.38;;;8.60;99.90;;;;;;4858736;29;20061;-91
2021/03/04 10:52:40;;;;;;;90.85;42.05;;;8.60;99.90;;;;;;4851252;29;20045;-94
2021/03/04 10:55:09;;;;;;;90.90;41.53;;;8.50;99.90;;;;;;4855006;29;20049;-92
2021/03/04 10:57:38;;;;;;;96.50;43.58;;;8.50;99.90;;;;;;4847284;29;20057;-93
2021/03/04 11:00:08;;;;;;;95.20;43.25;;;8.50;99.90;;;;;;4877987;29;20057;-93
2021/03/04 11:02:35;;;;;;;95.55;41.42;;;8.50;99.90;;;;;;4841043;29;20415;-94
2021/03/04 11:05:03;;;;;;;99.90;43.38;;;8.70;99.90;;;;;;4843586;29;20064;-93
2021/03/04 11:07:31;;;;;;;104.32;46.70;;;8.70;99.90;;;;;;4851745;29;20041;-95
2021/03/04 11:09:58;;;;;;;99.20;45.55;;;8.70;99.90;;;;;;4850355;29;20037;-93
2021/03/04 11:12:27;;;;;;;93.75;42.40;;;8.70;99.90;;;;;;4863644;29;20064;-93
2021/03/04 11:14:56;;;;;;;102.63;44.60;;;8.70;99.90;;;;;;4849470;29;20054;-93
2021/03/04 11:17:25;;;;;;;95.85;42.53;;;8.80;99.90;;;;;;4867114;29;20067;-93
2021/03/04 11:19:54;;;;;;;100.85;44.10;;;8.90;99.90;;;;;;4851014;29;20049;-91
2021/03/04 11:22:50;;;;;;;97.85;43.05;;;9.20;99.90;;;;;;4851288;29;20037;-92
2021/03/04 11:25:18;;;;;;;92.65;41.28;;;9.30;99.90;;;;;;4865525;29;20068;-92
2021/03/04 11:27:45;;;;;;;96.70;44.42;;;9.30;99.90;;;;;;4848644;29;20041;-92
2021/03/04 11:30:14;;;;;;;98.25;42.40;;;9.40;99.90;;;;;;4834657;29;20058;-90
2021/03/04 11:32:42;;;;;;;96.18;43.35;;;9.40;99.90;;;;;;4841884;29;20068;-91
2021/03/04 11:35:10;;;;;;;96.00;44.42;;;9.50;99.90;;;;;;4834739;29;20051;-93
2021/03/04 11:37:39;;;;;;;105.90;46.70;;;9.50;99.90;;;;;;4834078;29;20058;-92
2021/03/04 11:40:07;;;;;;;103.72;45.78;;;9.60;99.90;;;;;;4817056;29;20068;-92
2021/03/04 11:42:35;;;;;;;99.03;42.95;;;9.40;99.90;;;;;;4816771;29;20069;-92
2021/03/04 11:45:06;;;;;;;102.32;43.72;;;9.40;99.90;;;;;;4831862;29;20053;-92
2021/03/04 11:47:34;;;;;;;109.03;45.35;;;9.20;99.90;;;;;;4835046;29;20065;-93
2021/03/04 11:50:01;;;;;;;103.55;44.15;;;9.10;99.90;;;;;;4817757;29;20058;-94
2021/03/04 11:52:55;;;;;;;106.88;44.92;;;9.20;99.90;;;;;;4815784;29;20057;-93
2021/03/04 11:55:25;;;;;;;103.15;44.85;;;9.10;99.90;;;;;;4829032;29;20046;-96
2021/03/04 11:57:54;;;;;;;113.70;43.25;;;9.10;99.90;;;;;;4827007;29;20066;-95
2021/03/04 12:00:22;;;;;;;98.78;43.03;;;9.00;99.90;;;;;;4846589;29;20050;-93
2021/03/04 12:02:51;;;;;;;107.40;43.97;;;8.90;99.90;;;;;;4834650;29;20037;-95
2021/03/04 12:05:18;;;;;;;103.38;42.70;;;8.80;99.90;;;;;;4828312;29;20061;-94
2021/03/04 12:07:48;;;;;;;106.45;44.72;;;8.70;99.90;;;;;;4832353;29;20073;-94
2021/03/04 12:10:16;;;;;;;113.75;45.65;;;8.60;99.90;;;;;;4841789;29;20058;-95
2021/03/04 12:12:45;;;;;;;104.60;43.58;;;8.60;99.90;;;;;;4841843;29;20054;-94
2021/03/04 12:15:15;;;;;;;;;;;8.50;99.90;;;;;;4830099;29;20065;-91
2021/03/04 12:17:44;;;;;;;106.00;40.47;;;8.50;99.90;;;;;;4860206;29;20314;-94
2021/03/04 12:20:15;;;;;;;114.13;43.65;;;8.50;99.90;;;;;;4843658;29;20041;-94
2021/03/04 12:22:42;;;;;;;107.82;41.85;;;8.60;99.90;;;;;;4836143;29;20050;-93
2021/03/04 12:25:10;;;;;;;103.63;43.38;;;8.60;99.90;;;;;;4831724;29;20141;-93
2021/03/04 12:27:38;;;;;;;107.22;46.63;;;8.60;99.90;;;;;;4816620;29;20075;-95
2021/03/04 12:30:07;;;;;;;107.97;44.33;;;8.50;99.90;;;;;;4817283;29;20054;-95
2021/03/04 12:32:35;;;;;;;105.68;42.75;;;8.50;99.90;;;;;;4822806;29;20057;-94
2021/03/04 12:35:04;;;;;;;108.03;42.95;;;8.50;99.90;;;;;;4846953;29;20075;-91
2021/03/04 12:37:32;;;;;;;99.78;42.10;;;8.40;99.90;;;;;;4837638;29;20057;-94
2021/03/04 12:40:00;;;;;;;106.07;43.90;;;8.30;99.90;;;;;;4835281;29;20045;-93
2021/03/04 12:42:28;;;;;;;106.43;42.17;;;8.10;99.90;;;;;;4849019;29;20084;-93
2021/03/04 12:44:56;;;;;;;108.90;43.88;;;8.10;99.90;;;;;;4833658;29;20061;-92
2021/03/04 12:47:24;;;;;;;120.13;42.40;;;8.10;99.90;;;;;;4834281;29;20131;-94
2021/03/04 12:49:55;;;;;;;107.88;42.28;;;8.10;99.90;;;;;;4834316;29;20376;-94
2021/03/04 12:52:23;;;;;;;109.28;43.83;;;8.10;99.90;;;;;;4834321;29;20094;-92
2021/03/04 12:54:52;;;;;;;108.40;43.30;;;8.10;99.90;;;;;;4834205;29;20057;-94
2021/03/04 12:57:20;;;;;;;117.13;45.88;;;8.10;99.90;;;;;;4848942;29;20061;-95
2021/03/04 12:59:49;;;;;;;108.57;41.70;;;8.00;99.90;;;;;;4850521;29;20046;-94
2021/03/04 13:02:17;;;;;;;121.53;44.15;;;7.90;99.90;;;;;;4848492;29;20057;-94
2021/03/04 13:04:44;;;;;;;107.57;43.75;;;7.80;99.90;;;;;;4863078;29;20061;-94
2021/03/04 13:07:13;;;;;;;119.07;44.35;;;7.80;99.90;;;;;;4849185;29;20057;-94
2021/03/04 13:09:44;;;;;;;108.85;42.90;;;7.80;99.90;;;;;;4859598;29;20057;-94
2021/03/04 13:12:12;;;;;;;110.13;41.78;;;7.70;99.90;;;;;;4834975;29;20057;-94
2021/03/04 13:14:41;;;;;;;96.03;40.65;;;7.80;99.90;;;;;;4837042;29;20050;-93
2021/03/04 13:17:09;;;;;;;112.10;42.78;;;7.80;99.90;;;;;;4816747;29;20476;-93
2021/03/04 13:19:37;;;;;;;104.78;40.45;;;7.70;99.90;;;;;;4875505;29;20049;-93
2021/03/04 13:22:05;;;;;;;100.32;41.38;;;7.70;99.90;;;;;;4863757;29;20057;-93
2021/03/04 13:24:33;;;;;;;114.70;42.70;;;7.70;99.90;;;;;;4862835;29;20053;-94
2021/03/04 13:27:02;;;;;;;109.47;43.13;;;7.80;99.90;;;;;;4864112;29;20061;-94
2021/03/04 13:29:32;;;;;;;103.65;38.70;;;7.80;99.90;;;;;;4850538;29;20075;-94
2021/03/04 13:32:00;;;;;;;102.25;38.17;;;7.80;99.90;;;;;;4834440;29;20057;-95
2021/03/04 13:34:28;;;;;;;104.57;38.40;;;7.80;99.90;;;;;;4849530;29;20049;-96
2021/03/04 13:36:56;;;;;;;98.40;37.35;;;7.70;99.90;;;;;;4847502;29;20379;-95
2021/03/04 13:39:23;;;;;;;113.03;41.40;;;7.70;99.90;;;;;;4851363;29;20050;-95
2021/03/04 13:41:51;;;;;;;106.13;40.13;;;7.60;99.90;;;;;;4852483;29;20068;-96
2021/03/04 13:44:18;;;;;;;110.22;38.88;;;7.50;99.90;;;;;;4868209;29;20061;-95
2021/03/04 13:46:46;;;;;;;109.72;40.42;;;7.40;99.90;;;;;;4860095;29;20068;-94
2021/03/04 13:49:16;;;;;;;119.20;41.08;;;7.40;99.90;;;;;;4860947;29;20490;-96
2021/03/04 13:51:43;;;;;;;115.63;38.55;;;7.30;99.90;;;;;;4873590;29;20049;-96
2021/03/04 13:54:11;;;;;;;107.72;37.83;;;7.40;99.90;;;;;;4859724;29;20064;-94
2021/03/04 13:56:39;;;;;;;111.78;37.90;;;7.40;99.90;;;;;;4872578;29;20068;-94
2021/03/04 13:59:06;;;;;;;118.18;38.35;;;7.50;99.90;;;;;;4843047;29;20057;-95
2021/03/04 14:01:34;;;;;;;106.93;37.25;;;7.50;99.90;;;;;;4856005;29;20443;-95
2021/03/04 14:04:02;;;;;;;106.78;39.15;;;7.40;99.90;;;;;;4838867;29;20084;-94
2021/03/04 14:06:32;;;;;;;111.57;37.00;;;7.20;99.90;;;;;;4853736;29;20072;-95
2021/03/04 14:08:59;;;;;;;107.72;36.38;;;7.30;99.90;;;;;;4838001;29;20486;-95
2021/03/04 14:11:31;;;;;;;109.50;37.03;;;7.20;99.90;;;;;;4856307;29;20058;-96
2021/03/04 14:13:59;;;;;;;98.28;34.88;;;7.10;99.90;;;;;;4855199;29;20057;-96
2021/03/04 14:16:27;;;;;;;103.43;34.13;;;7.10;99.90;;;;;;4875253;29;20068;-95
2021/03/04 14:18:55;;;;;;;102.05;34.83;;;7.10;99.90;;;;;;4845264;29;20058;-96
2021/03/04 14:21:25;;;;;;;87.38;33.42;;;7.10;99.90;;;;;;4847236;29;20472;-96
2021/03/04 14:23:56;;;;;;;94.53;34.20;;;7.10;99.90;;;;;;4879539;29;20057;-96
2021/03/04 14:26:25;;;;;;;94.93;33.55;;;7.10;99.90;;;;;;4881116;29;20057;-96
2021/03/04 14:28:57;;;;;;;98.43;34.30;;;7.00;99.90;;;;;;4838048;29;20030;-96
2021/03/04 14:31:26;;;;;;;100.53;32.13;;;6.90;99.90;;;;;;4865025;29;20067;-96
2021/03/04 14:33:54;;;;;;;99.30;33.50;;;7.00;99.90;;;;;;4869451;29;20057;-96
2021/03/04 14:36:24;;;;;;;98.70;33.55;;;6.90;99.90;;;;;;4873226;29;20057;-96
2021/03/04 14:39:01;;;;;;;90.15;31.73;;;6.70;99.90;;;;;;4888945;29;20052;-96
2021/03/04 14:41:30;;;;;;;102.03;32.22;;;6.70;99.90;;;;;;4871607;29;20037;-96
2021/03/04 14:43:59;;;;;;;96.85;31.48;;;6.70;99.90;;;;;;4870092;29;20048;-96
2021/03/04 14:46:28;;;;;;;101.53;33.20;;;6.60;99.90;;;;;;4881528;29;20056;-96
2021/03/04 14:48:57;;;;;;;90.50;29.98;;;6.70;99.90;;;;;;4899226;29;20056;-96
2021/03/04 14:51:26;;;;;;;95.22;32.95;;;6.80;99.90;;;;;;4830431;29;20219;-96
2021/03/04 14:53:54;;;;;;;99.13;32.55;;;6.80;99.90;;;;;;4845964;29;20398;-94
2021/03/04 14:56:24;;;;;;;96.90;30.73;;;6.80;99.90;;;;;;4848718;29;20054;-96
2021/03/04 14:58:54;;;;;;;92.35;30.35;;;6.70;99.90;;;;;;4846024;29;20057;-96
2021/03/04 15:01:24;;;;;;;79.18;29.88;;;6.60;99.90;;;;;;4858271;29;20064;-96
2021/03/04 15:03:52;;;;;;;73.70;24.92;;;6.60;99.90;;;;;;4835008;29;20380;-96
2021/03/04 15:06:21;;;;;;;66.20;24.90;;;6.60;99.90;;;;;;4821000;29;20069;-96
2021/03/04 15:08:50;;;;;;;82.03;26.50;;;6.50;99.90;;;;;;4823507;29;20073;-96
2021/03/04 15:11:18;;;;;;;;;;;6.50;99.90;;;;;;4820293;29;20069;-96
2021/03/04 15:13:46;;;;;;;69.20;23.63;;;6.50;99.90;;;;;;4818326;29;20361;-96
2021/03/04 15:16:14;;;;;;;71.28;23.08;;;6.40;99.90;;;;;;4851593;29;20161;-96
2021/03/04 15:18:43;;;;;;;82.55;24.05;;;6.30;99.90;;;;;;4832259;29;20066;-96
2021/03/04 15:21:10;;;;;;;86.95;26.00;;;6.30;99.90;;;;;;4834453;29;20477;-95
2021/03/04 15:23:39;;;;;;;84.90;23.88;;;6.30;99.90;;;;;;4818893;29;20065;-96
2021/03/04 15:26:07;;;;;;;74.63;24.35;;;6.30;99.90;;;;;;4818096;29;20069;-95
2021/03/04 15:28:38;;;;;;;86.97;27.27;;;6.30;99.90;;;;;;4826948;29;20059;-96
2021/03/04 15:31:07;;;;;;;;;;;6.30;99.90;;;;;;4846766;29;20068;-96
2021/03/04 15:33:35;;;;;;;;;;;6.30;99.90;;;;;;4837575;29;19924;-94
2021/03/04 15:36:04;;;;;;;72.55;23.42;;;6.20;99.90;;;;;;4851047;29;19928;-96
2021/03/04 15:38:31;;;;;;;68.50;22.40;;;6.20;99.90;;;;;;4837222;29;20062;-96